Time;durP1;ratioP1;P1;durP2;ratioP2;P2;SDS_P1;SDS_P2;PMS_P1;PMS_P2;Temp;Humidity;BMP_temperature;BMP_pressure;BME280_temperature;BME280_humidity;BME280_pressure;Samples;Min_cycle;Max_cycle;Signal;HPM_P1;HPM_P2
2022/01/20 00:00:13;;;;;;;49.98;20.17;;;;;;;-4.17;60.52;101582.44;1812845;78;25707;-61
2022/01/20 00:02:29;;;;;;;52.15;20.75;;;;;;;-4.16;60.61;101581.55;1811252;77;25796;-61
2022/01/20 00:05:11;;;;;;;55.65;19.62;;;;;;;-4.17;60.71;101571.94;1813239;77;26029;-60
2022/01/20 00:07:45;;;;;;;48.87;20.88;;;;;;;-4.18;60.55;101574.59;1812370;78;25734;-60
2022/01/20 00:28:50;;;;;;;41.92;19.50;;;;;;;-4.09;60.95;101531.09;1776112;79;25534;-61
2022/01/20 00:31:14;;;;;;;47.20;21.42;;;;;;;-4.09;61.13;101531.09;1779418;78;26115;-61
2022/01/20 00:33:48;;;;;;;40.25;18.77;;;;;;;-4.12;60.92;101531.13;1779084;78;25722;-61
2022/01/20 00:38:43;;;;;;;48.50;20.85;;;;;;;-4.21;60.98;101517.70;1775952;80;27182;-61
2022/01/20 00:41:15;;;;;;;43.90;19.85;;;;;;;-4.27;60.93;101516.50;1783894;79;25767;-60
2022/01/20 00:43:43;;;;;;;62.05;26.25;;;;;;;-4.31;60.92;101513.05;1808041;79;26047;-61
2022/01/20 00:46:11;;;;;;;47.88;22.82;;;;;;;-4.34;61.04;101499.95;1808101;79;25855;-61
2022/01/20 00:48:38;;;;;;;54.40;26.23;;;;;;;-4.41;60.94;101497.00;1807838;78;27484;-61
2022/01/20 00:51:08;;;;;;;63.10;24.72;;;;;;;-4.45;61.03;101497.48;1807795;79;25608;-61
2022/01/20 00:53:36;;;;;;;50.65;21.80;;;;;;;-4.46;61.29;101488.30;1807624;79;25705;-61
2022/01/20 00:56:03;;;;;;;47.80;22.00;;;;;;;-4.46;61.42;101487.87;1808175;78;26111;-61
2022/01/20 00:58:29;;;;;;;45.78;20.70;;;;;;;-4.44;61.36;101474.70;1807967;79;26023;-60
2022/01/20 01:01:00;;;;;;;44.95;20.40;;;;;;;-4.40;61.42;101475.09;1807657;79;27453;-61
2022/01/20 01:03:27;;;;;;;43.02;19.07;;;;;;;-4.39;61.52;101467.61;1807442;78;25699;-61
2022/01/20 01:06:17;;;;;;;42.48;20.52;;;;;;;-4.33;61.68;101457.45;1808160;79;25775;-61
2022/01/20 01:08:32;;;;;;;49.70;22.85;;;;;;;-4.28;61.65;101455.19;1805699;78;26098;-60
2022/01/20 01:10:59;;;;;;;52.13;23.18;;;;;;;-4.25;61.54;101441.13;1808140;78;26090;-60
2022/01/20 01:13:28;;;;;;;62.50;22.50;;;;;;;-4.28;61.28;101447.77;1807960;79;27463;-60
2022/01/20 01:15:56;;;;;;;53.87;24.02;;;;;;;-4.26;61.54;101448.61;1803034;79;25758;-61
2022/01/20 01:21:30;;;;;;;64.00;27.40;;;;;;;-4.28;61.69;101445.98;1750838;80;26182;-60
2022/01/20 01:23:55;;;;;;;69.30;25.90;;;;;;;-4.27;61.67;101449.50;1756004;79;26100;-60
2022/01/20 01:26:27;;;;;;;57.08;23.73;;;;;;;-4.29;61.65;101438.14;1795173;79;27535;-60
2022/01/20 01:28:53;;;;;;;57.67;24.15;;;;;;;-4.36;61.40;101429.95;1765168;79;26449;-60
2022/01/20 01:31:40;;;;;;;57.00;24.23;;;;;;;-4.41;61.44;101429.55;1765088;80;25780;-60
2022/01/20 01:34:14;;;;;;;55.63;22.98;;;;;;;-4.44;61.57;101415.15;1763315;80;26163;-61
2022/01/20 01:36:50;;;;;;;51.18;22.02;;;;;;;-4.42;61.60;101419.09;1757988;80;25729;-61
2022/01/20 01:39:17;;;;;;;48.00;20.97;;;;;;;-4.40;61.70;101413.37;1765597;79;27482;-61
2022/01/20 01:41:46;;;;;;;42.00;18.80;;;;;;;-4.41;61.81;101401.98;1764726;80;25773;-62
2022/01/20 01:44:26;;;;;;;39.13;18.30;;;;;;;-4.40;61.79;101393.67;1765934;79;25974;-60
2022/01/20 01:46:49;;;;;;;50.35;20.15;;;;;;;-4.41;61.76;101384.05;1765423;79;25799;-60
2022/01/20 01:49:21;;;;;;;47.00;21.80;;;;;;;-4.46;61.68;101377.98;1765471;80;25840;-60
2022/01/20 01:51:51;;;;;;;48.68;19.37;;;;;;;-4.51;61.72;101378.52;1765384;80;32964;-60
2022/01/20 01:54:19;;;;;;;50.92;19.92;;;;;;;-4.50;62.00;101376.33;1764709;78;26013;-60
2022/01/20 01:56:49;;;;;;;41.80;18.45;;;;;;;-4.47;62.06;101372.31;1765033;80;25737;-60
2022/01/20 01:59:18;;;;;;;34.90;15.98;;;;;;;-4.46;62.03;101370.11;1765225;81;26054;-60
2022/01/20 02:01:59;;;;;;;44.98;16.75;;;;;;;-4.43;61.97;101364.36;1764723;79;25420;-61
2022/01/20 02:04:26;;;;;;;31.75;15.50;;;;;;;-4.48;61.96;101364.89;1765286;81;27425;-60
2022/01/20 02:07:37;;;;;;;33.73;15.75;;;;;;;-4.47;62.03;101356.55;1765184;81;25703;-60
2022/01/20 02:20:41;;;;;;;37.95;15.25;;;;;;;-4.57;62.23;101334.38;1784339;80;25513;-61
2022/01/20 02:23:10;;;;;;;36.77;15.48;;;;;;;-4.53;62.11;101323.84;1784005;80;25799;-61
2022/01/20 02:25:46;;;;;;;35.10;14.53;;;;;;;-4.53;62.01;101329.09;1782523;80;26043;-61
2022/01/20 02:28:13;;;;;;;;;;;;;;;-4.52;61.95;101322.49;1784791;80;25788;-61
2022/01/20 02:30:43;;;;;;;33.28;14.03;;;;;;;-4.52;61.94;101311.13;1782338;80;27487;-60
2022/01/20 02:33:17;;;;;;;28.83;12.85;;;;;;;-4.57;61.87;101305.50;1781803;80;25765;-61
2022/01/20 02:35:50;;;;;;;30.70;14.23;;;;;;;-4.51;62.05;101301.05;1782312;80;25793;-60
2022/01/20 02:38:36;;;;;;;32.38;13.53;;;;;;;-4.48;62.22;101284.80;1780952;80;26811;-60
2022/01/20 02:46:37;;;;;;;31.45;14.75;;;;;;;-4.40;62.13;101281.58;1810786;79;25798;-60
2022/01/20 02:49:07;;;;;;;33.70;14.05;;;;;;;-4.44;62.03;101283.83;1810780;79;25765;-60
2022/01/20 02:52:31;;;;;;;25.75;13.45;;;;;;;-4.49;62.07;101279.58;1811217;79;26200;-60
2022/01/20 02:54:59;;;;;;;24.77;11.97;;;;;;;-4.55;61.94;101272.67;1808001;77;25712;-61
2022/01/20 02:57:41;;;;;;;32.35;12.93;;;;;;;-4.62;61.85;101269.74;1806489;77;29636;-61
2022/01/20 03:00:10;;;;;;;28.25;12.60;;;;;;;-4.65;62.04;101265.38;1806934;77;25718;-61
2022/01/20 03:02:39;;;;;;;31.50;12.30;;;;;;;-4.64;62.16;101258.39;1808281;79;25703;-60
2022/01/20 03:05:08;;;;;;;26.82;12.53;;;;;;;-4.61;62.05;101256.58;1807936;78;26213;-61
2022/01/20 03:07:36;;;;;;;27.40;12.75;;;;;;;-4.58;62.06;101256.96;1808472;79;26437;-61
2022/01/20 03:10:06;;;;;;;33.15;13.53;;;;;;;-4.59;62.08;101250.86;1808156;79;27458;-61
2022/01/20 03:12:36;;;;;;;25.90;14.00;;;;;;;-4.60;62.17;101237.73;1807860;78;25782;-61
2022/01/20 03:15:05;;;;;;;29.48;13.32;;;;;;;-4.58;62.15;101243.83;1808107;78;25778;-61
2022/01/20 03:17:32;;;;;;;24.63;12.75;;;;;;;-4.58;62.01;101242.52;1789006;79;26781;-60
2022/01/20 03:20:00;;;;;;;30.77;12.80;;;;;;;-4.65;61.86;101223.37;1755110;79;25740;-61
2022/01/20 03:22:27;;;;;;;28.77;12.65;;;;;;;-4.69;61.86;101230.02;1748467;82;28633;-61
2022/01/20 03:24:56;;;;;;;38.78;11.75;;;;;;;-4.75;62.01;101218.75;1740928;82;25741;-61
2022/01/20 03:27:23;;;;;;;32.50;11.00;;;;;;;-4.74;62.09;101207.36;1739933;81;25649;-61
2022/01/20 03:29:50;;;;;;;24.60;11.28;;;;;;;-4.77;62.10;101206.09;1747981;80;26078;-61
2022/01/20 03:32:17;;;;;;;26.93;11.85;;;;;;;-4.80;62.02;101202.66;1747183;82;25821;-61
2022/01/20 03:34:50;;;;;;;44.48;13.32;;;;;;;-4.85;62.07;101212.39;1747143;82;27511;-61
2022/01/20 03:37:17;;;;;;;25.72;11.63;;;;;;;-4.85;62.24;101207.99;1745915;81;25714;-61
2022/01/20 03:39:51;;;;;;;23.30;10.55;;;;;;;-4.87;62.27;101208.03;1745449;81;25821;-61
2022/01/20 03:42:23;;;;;;;25.27;9.23;;;;;;;-4.91;62.26;101193.22;1747251;82;26100;-61
2022/01/20 03:44:52;;;;;;;23.95;10.98;;;;;;;-4.94;62.54;101195.91;1747231;82;25680;-61
2022/01/20 03:47:24;;;;;;;21.23;12.13;;;;;;;-5.01;62.27;101199.97;1747302;82;27439;-61
2022/01/20 03:50:07;;;;;;;28.55;11.15;;;;;;;-5.09;62.35;101194.41;1747302;81;25501;-60
2022/01/20 03:52:20;;;;;;;27.05;10.95;;;;;;;-5.12;62.39;101190.52;1738795;82;25747;-61
2022/01/20 03:54:47;;;;;;;28.45;12.33;;;;;;;-5.11;62.53;101190.09;1740049;82;26105;-61
2022/01/20 03:57:18;;;;;;;25.25;11.38;;;;;;;-5.11;62.63;101183.53;1740674;82;25795;-61
2022/01/20 03:59:58;;;;;;;20.97;10.50;;;;;;;-5.13;62.57;101184.84;1747354;82;27556;-62
2022/01/20 04:02:47;;;;;;;32.67;11.40;;;;;;;-5.17;62.53;101184.50;1746941;81;25514;-61
2022/01/20 04:05:18;;;;;;;24.32;10.63;;;;;;;-5.23;62.59;101191.13;1745393;80;25743;-61
2022/01/20 04:07:50;;;;;;;23.90;11.28;;;;;;;-5.26;62.63;101183.34;1747048;81;26115;-61
2022/01/20 04:10:19;;;;;;;24.20;11.28;;;;;;;-5.29;62.69;101172.89;1747255;81;25707;-61
2022/01/20 04:12:46;;;;;;;26.48;10.55;;;;;;;-5.26;62.83;101171.53;1747284;81;27883;-61
2022/01/20 04:15:18;;;;;;;27.75;11.40;;;;;;;-5.27;63.00;101175.05;1747265;82;26227;-62
2022/01/20 04:17:51;;;;;;;30.10;11.15;;;;;;;-5.24;63.11;101177.59;1749700;81;25459;-61
2022/01/20 04:20:16;;;;;;;28.83;12.90;;;;;;;-5.21;63.10;101185.00;1728623;81;26137;-62
2022/01/20 04:22:43;;;;;;;25.97;12.88;;;;;;;-5.19;63.02;101191.52;1774254;80;25787;-61
2022/01/20 04:25:10;;;;;;;23.18;11.73;;;;;;;-5.15;63.07;101183.15;1793282;79;27392;-61
2022/01/20 04:27:37;;;;;;;25.25;11.45;;;;;;;-5.19;62.89;101178.41;1794996;79;25817;-61
2022/01/20 04:30:05;;;;;;;25.90;11.18;;;;;;;-5.21;63.14;101185.42;1794952;79;25755;-60
2022/01/20 04:32:32;;;;;;;23.87;11.63;;;;;;;-5.21;63.21;101169.26;1795021;79;26153;-60
2022/01/20 04:35:01;;;;;;;19.57;9.68;;;;;;;-5.17;63.20;101162.20;1794992;79;25739;-61
2022/01/20 04:37:28;;;;;;;29.40;10.98;;;;;;;-5.11;63.35;101152.05;1794799;79;27474;-61
2022/01/20 04:39:56;;;;;;;25.82;11.35;;;;;;;-5.08;63.34;101155.48;1795163;79;25932;-60
2022/01/20 04:42:27;;;;;;;33.10;12.50;;;;;;;-5.02;63.36;101138.77;1764931;79;26100;-61
2022/01/20 04:45:01;;;;;;;30.77;13.40;;;;;;;-5.07;63.02;101134.92;1755346;81;26048;-61
2022/01/20 04:47:45;;;;;;;29.60;11.88;;;;;;;-5.11;62.98;101133.69;1723708;81;26456;-61
2022/01/20 04:58:21;;;;;;;26.00;11.60;;;;;;;-5.17;63.34;101120.23;1755412;81;26115;-61
2022/01/20 05:00:48;;;;;;;21.93;10.88;;;;;;;-5.12;63.42;101121.46;1755551;81;25747;-61
2022/01/20 05:03:34;;;;;;;30.97;11.57;;;;;;;-5.10;63.28;101115.72;1781349;80;27472;-61
2022/01/20 05:06:15;;;;;;;26.40;11.15;;;;;;;-5.08;63.18;101111.31;1780106;79;25801;-61
2022/01/20 05:08:42;;;;;;;32.60;15.90;;;;;;;-5.07;63.08;101112.62;1778671;80;25813;-60
2022/01/20 05:11:12;;;;;;;128.78;48.58;;;;;;;-5.03;63.09;101107.72;1756613;80;26110;-61
2022/01/20 05:13:40;;;;;;;92.20;34.88;;;;;;;-5.02;63.07;101111.22;1756870;81;26453;-61
2022/01/20 05:16:08;;;;;;;82.70;28.42;;;;;;;-5.03;63.33;101114.27;1757016;80;27480;-61
2022/01/20 05:18:36;;;;;;;86.78;30.77;;;;;;;-5.03;63.20;101107.72;1783023;79;25711;-61
2022/01/20 05:21:05;;;;;;;77.45;30.57;;;;;;;-5.04;63.15;101106.44;1777692;79;25734;-61
2022/01/20 05:23:34;;;;;;;47.43;19.05;;;;;;;-5.01;63.17;101105.05;1779151;78;26450;-61
2022/01/20 05:26:06;;;;;;;30.17;15.13;;;;;;;-4.99;63.15;101104.58;1759976;79;25806;-61
2022/01/20 05:28:33;;;;;;;33.13;14.53;;;;;;;-4.98;63.06;101098.45;1706574;82;28203;-61
2022/01/20 05:31:03;;;;;;;27.73;13.48;;;;;;;-4.99;62.95;101103.73;1781743;79;25777;-61
2022/01/20 05:33:32;;;;;;;24.43;11.22;;;;;;;-5.07;62.72;101107.38;1783673;79;25725;-60
2022/01/20 05:36:00;;;;;;;36.53;16.52;;;;;;;-5.09;63.09;101103.02;1783235;80;26172;-62
2022/01/20 05:38:29;;;;;;;37.88;16.60;;;;;;;-5.18;62.69;101097.51;1783087;80;25766;-62
2022/01/20 05:40:57;;;;;;;34.95;14.70;;;;;;;-5.18;63.13;101104.06;1790515;79;28577;-62
2022/01/20 05:43:26;;;;;;;39.50;13.98;;;;;;;-5.18;63.26;101088.33;1792357;79;25698;-61
2022/01/20 05:45:53;;;;;;;28.70;13.75;;;;;;;-5.23;62.97;101083.59;1783034;80;25449;-61
2022/01/20 05:48:32;;;;;;;43.00;17.70;;;;;;;-5.26;62.96;101076.66;1773573;80;26255;-61
2022/01/20 05:51:12;;;;;;;52.60;21.40;;;;;;;-5.30;62.85;101076.73;1777784;79;25808;-61
2022/01/20 05:53:40;;;;;;;48.35;17.87;;;;;;;-5.33;62.98;101080.75;1794094;79;27435;-62
2022/01/20 05:56:07;;;;;;;41.58;16.57;;;;;;;-5.30;63.12;101080.24;1792712;79;25719;-62
2022/01/20 05:58:36;;;;;;;27.60;13.53;;;;;;;-5.25;63.28;101080.16;1791990;78;25801;-62
2022/01/20 06:01:08;;;;;;;40.03;15.78;;;;;;;-5.22;63.43;101080.97;1797103;79;26078;-61
2022/01/20 06:03:39;;;;;;;38.13;15.03;;;;;;;-5.16;63.46;101085.23;1780273;79;25762;-61
2022/01/20 06:06:14;;;;;;;34.15;13.72;;;;;;;-5.12;63.39;101085.58;1758390;79;27946;-60
2022/01/20 06:08:42;;;;;;;26.70;12.30;;;;;;;-5.10;63.37;101081.18;1769373;81;25682;-60
2022/01/20 06:11:10;;;;;;;47.70;18.10;;;;;;;-5.09;63.27;101080.29;1767954;79;25694;-61
2022/01/20 06:13:37;;;;;;;31.60;14.43;;;;;;;-5.10;63.10;101081.18;1774721;80;28110;-60
2022/01/20 06:16:06;;;;;;;46.92;19.85;;;;;;;-5.03;63.22;101079.31;1726991;81;25777;-61
2022/01/20 06:18:33;;;;;;;39.15;18.98;;;;;;;-5.04;62.82;101078.43;1727497;82;27470;-60
2022/01/20 06:21:03;;;;;;;36.58;14.83;;;;;;;-5.06;62.89;101079.36;1737228;80;25765;-61
2022/01/20 06:23:30;;;;;;;33.25;14.65;;;;;;;-5.04;62.95;101062.69;1747255;80;25767;-61
2022/01/20 06:26:02;;;;;;;39.88;14.40;;;;;;;-4.97;62.94;101063.87;1738109;82;26088;-60
2022/01/20 06:28:29;;;;;;;40.50;13.85;;;;;;;-4.92;63.18;101052.39;1739622;82;25727;-60
2022/01/20 06:30:56;;;;;;;33.65;12.70;;;;;;;-4.82;63.42;101057.03;1737834;82;27491;-61
2022/01/20 06:33:24;;;;;;;42.75;12.88;;;;;;;-4.77;63.16;101060.41;1737560;82;25799;-61
2022/01/20 06:35:53;;;;;;;25.70;12.40;;;;;;;-4.73;63.17;101053.34;1739189;81;26034;-61
2022/01/20 06:38:21;;;;;;;41.75;13.22;;;;;;;-4.71;63.19;101045.84;1740547;82;26134;-61
2022/01/20 06:40:50;;;;;;;33.25;13.13;;;;;;;-4.71;63.13;101041.91;1741501;80;25696;-61
2022/01/20 06:43:19;;;;;;;24.10;11.85;;;;;;;-4.71;62.85;101051.55;1738003;81;27445;-60
2022/01/20 06:45:46;;;;;;;34.13;14.38;;;;;;;-4.72;62.86;101059.01;1736254;81;25674;-61
2022/01/20 06:48:15;;;;;;;25.77;12.53;;;;;;;-4.71;63.03;101049.78;1739987;80;25436;-60
2022/01/20 06:50:44;;;;;;;35.75;13.53;;;;;;;-4.68;63.12;101054.13;1715943;82;26110;-60
2022/01/20 06:53:11;;;;;;;29.75;12.15;;;;;;;-4.62;63.30;101059.70;1724643;82;25744;-60
2022/01/20 06:55:38;;;;;;;43.52;19.00;;;;;;;-4.51;63.40;101060.31;1724184;80;27490;-60
2022/01/20 06:58:06;;;;;;;35.38;15.38;;;;;;;-4.41;63.32;101046.09;1743695;82;25759;-60
2022/01/20 07:00:33;;;;;;;43.08;15.90;;;;;;;-4.33;63.08;101030.61;1746469;81;25720;-61
2022/01/20 07:03:01;;;;;;;36.63;14.73;;;;;;;-4.23;63.17;101029.50;1738824;82;26032;-61
2022/01/20 07:05:28;;;;;;;38.00;15.20;;;;;;;-4.10;63.43;101041.47;1739367;81;25785;-60
2022/01/20 07:07:57;;;;;;;45.17;16.52;;;;;;;-3.97;63.37;101030.22;1739361;82;27442;-61
2022/01/20 07:10:29;;;;;;;46.70;17.98;;;;;;;-3.85;63.54;101018.53;1739671;82;25812;-60
2022/01/20 07:13:00;;;;;;;55.88;25.55;;;;;;;-3.73;63.44;101016.51;1739745;82;25794;-60
2022/01/20 07:15:28;;;;;;;33.30;14.85;;;;;;;-3.67;63.42;101016.34;1739166;81;26099;-60
2022/01/20 07:17:56;;;;;;;47.30;17.45;;;;;;;-3.62;63.40;101011.38;1734568;82;25475;-60
2022/01/20 07:20:25;;;;;;;39.95;14.75;;;;;;;-3.59;63.23;101010.90;1735091;81;27484;-60
2022/01/20 07:23:07;;;;;;;44.27;15.98;;;;;;;-3.53;63.19;101006.78;1736582;80;25893;-60
2022/01/20 07:25:35;;;;;;;39.65;17.55;;;;;;;-3.52;63.69;101009.36;1793415;79;25817;-60
2022/01/20 07:28:04;;;;;;;40.17;16.62;;;;;;;-3.46;63.44;101009.66;1786043;79;26101;-60
2022/01/20 07:30:35;;;;;;;67.80;29.18;;;;;;;-3.37;63.45;101010.73;1785742;80;25930;-60
2022/01/20 07:33:05;;;;;;;43.75;18.52;;;;;;;-3.31;63.26;101002.66;1785738;79;27486;-60
2022/01/20 07:35:34;;;;;;;38.65;15.80;;;;;;;-3.24;63.14;101005.99;1785274;80;25721;-60
2022/01/20 07:38:06;;;;;;;32.78;15.55;;;;;;;-3.13;63.37;101003.52;1785735;80;25670;-60
2022/01/20 07:40:35;;;;;;;39.53;15.68;;;;;;;-3.05;63.26;101010.28;1786106;78;26057;-60
2022/01/20 07:43:03;;;;;;;36.30;14.50;;;;;;;-2.94;63.21;101020.53;1807783;79;26349;-60
2022/01/20 07:45:47;;;;;;;45.25;16.60;;;;;;;-2.83;63.21;101012.31;1801749;79;30935;-62
2022/01/20 07:48:35;;;;;;;36.75;15.93;;;;;;;-2.76;62.96;101005.11;1789724;79;25477;-60
2022/01/20 07:51:05;;;;;;;33.85;15.48;;;;;;;-2.71;62.72;101000.55;1784037;80;25766;-60
2022/01/20 07:53:38;;;;;;;30.27;15.50;;;;;;;-2.59;62.98;101005.47;1802741;79;26106;-60
2022/01/20 07:56:07;;;;;;;35.85;16.02;;;;;;;-2.45;62.99;101004.17;1802480;78;25692;-60
2022/01/20 07:58:35;;;;;;;34.03;15.88;;;;;;;-2.32;62.83;101005.53;1802426;78;27548;-60
2022/01/20 08:01:05;;;;;;;39.90;16.15;;;;;;;-2.24;62.65;100999.56;1780323;79;25820;-60
2022/01/20 08:03:33;;;;;;;67.32;17.82;;;;;;;-2.10;62.60;101006.15;1796963;79;25737;-60
2022/01/20 08:06:08;;;;;;;31.97;14.43;;;;;;;-1.97;62.45;100989.51;1785450;79;25713;-60
2022/01/20 08:08:36;;;;;;;29.60;14.75;;;;;;;-1.84;62.23;100991.28;1782822;79;25701;-60
2022/01/20 08:11:24;;;;;;;36.23;15.72;;;;;;;-1.72;61.87;100991.31;1782230;79;29679;-59
2022/01/20 08:13:53;;;;;;;34.58;16.82;;;;;;;-1.60;61.62;100982.52;1784048;80;25470;-59
2022/01/20 08:16:20;;;;;;;37.33;16.77;;;;;;;-1.45;61.60;100982.89;1786487;79;25750;-60
2022/01/20 08:18:47;;;;;;;39.42;18.20;;;;;;;-1.31;61.43;100976.69;1792107;78;26095;-60
2022/01/20 08:21:15;;;;;;;43.35;18.17;;;;;;;-1.15;61.29;100980.08;1804316;79;25799;-60
2022/01/20 08:23:43;;;;;;;47.43;19.90;;;;;;;-1.02;61.20;100972.09;1803285;79;27440;-60
2022/01/20 08:26:14;;;;;;;45.15;20.43;;;;;;;-0.84;60.89;100974.53;1794119;79;25687;-59
2022/01/20 08:28:42;;;;;;;48.52;18.27;;;;;;;-0.74;60.05;100976.34;1784195;79;25786;-60
2022/01/20 08:31:09;;;;;;;41.98;19.12;;;;;;;-0.63;60.07;100962.74;1778981;79;26099;-60
2022/01/20 08:33:36;;;;;;;39.78;18.20;;;;;;;-0.50;60.00;100961.33;1802370;79;25689;-60
2022/01/20 08:36:06;;;;;;;50.88;20.10;;;;;;;-0.35;60.18;100961.19;1786998;79;27482;-60
2022/01/20 08:38:41;;;;;;;40.90;18.70;;;;;;;-0.11;59.91;100965.07;1797174;78;26006;-60
2022/01/20 08:41:08;;;;;;;41.65;19.25;;;;;;;0.07;59.87;100971.84;1792394;79;26173;-60
2022/01/20 08:43:38;;;;;;;37.48;18.52;;;;;;;0.23;59.19;100972.07;1826792;77;26113;-60
2022/01/20 08:46:09;;;;;;;38.70;17.80;;;;;;;0.39;59.30;100969.16;1839911;77;26264;-60
2022/01/20 08:48:38;;;;;;;39.98;17.85;;;;;;;0.66;58.97;100973.34;1780210;77;27483;-60
2022/01/20 08:51:10;;;;;;;52.60;16.67;;;;;;;1.01;57.50;100968.25;1765433;79;25752;-60
2022/01/20 08:53:40;;;;;;;38.10;18.37;;;;;;;1.65;57.08;100962.20;1784524;80;25682;-60
2022/01/20 08:56:12;;;;;;;39.90;18.70;;;;;;;2.63;54.39;100951.55;1785559;80;26092;-60
2022/01/20 08:58:42;;;;;;;40.40;18.23;;;;;;;3.33;52.75;100955.33;1788691;79;26078;-60
2022/01/20 09:01:09;;;;;;;35.73;17.77;;;;;;;4.06;52.27;100960.53;1784148;79;27521;-60
2022/01/20 09:03:36;;;;;;;43.40;18.23;;;;;;;4.78;51.71;100950.52;1785634;80;25840;-60
2022/01/20 09:06:06;;;;;;;38.40;18.12;;;;;;;5.45;50.55;100957.42;1788154;79;25793;-60
2022/01/20 09:08:43;;;;;;;36.42;15.70;;;;;;;6.09;50.34;100950.65;1782235;79;27051;-60
2022/01/20 09:11:20;;;;;;;35.55;17.65;;;;;;;6.57;48.00;100942.94;1785586;79;25782;-60
2022/01/20 09:16:26;;;;;;;33.38;17.50;;;;;;;7.65;47.31;100929.04;1793235;79;25786;-60
2022/01/20 09:18:57;;;;;;;42.23;16.97;;;;;;;8.15;47.18;100926.72;1796464;79;25783;-61
2022/01/20 09:21:26;;;;;;;46.75;20.48;;;;;;;8.56;45.55;100914.66;1799299;78;26089;-61
2022/01/20 09:23:58;;;;;;;38.63;18.12;;;;;;;8.85;45.50;100922.25;1790347;79;25696;-61
2022/01/20 09:26:29;;;;;;;38.58;16.37;;;;;;;9.38;44.80;100916.21;1797552;79;27420;-61
2022/01/20 09:28:59;;;;;;;35.48;15.65;;;;;;;9.87;42.46;100912.66;1798796;79;25735;-61
2022/01/20 09:31:37;;;;;;;46.18;17.95;;;;;;;10.22;42.21;100901.27;1813467;79;25786;-61
2022/01/20 09:34:01;;;;;;;55.10;18.77;;;;;;;10.78;41.84;100897.87;1813323;79;26806;-61
2022/01/20 09:36:29;;;;;;;39.98;16.65;;;;;;;11.23;41.81;100897.48;1808994;78;25797;-61
2022/01/20 09:38:57;;;;;;;40.38;14.28;;;;;;;11.44;40.66;100900.55;1804601;79;27473;-61
2022/01/20 09:41:25;;;;;;;50.28;17.62;;;;;;;11.80;40.21;100900.04;1805422;79;25873;-61
2022/01/20 09:43:56;;;;;;;34.23;17.00;;;;;;;12.15;39.65;100888.70;1816584;79;25646;-62
2022/01/20 09:46:27;;;;;;;48.90;17.67;;;;;;;12.50;39.64;100883.19;1816131;78;26091;-61
2022/01/20 09:48:58;;;;;;;36.83;16.97;;;;;;;12.82;37.86;100890.03;1813582;78;25724;-61
2022/01/20 09:51:27;;;;;;;33.02;15.85;;;;;;;13.16;37.15;100880.51;1814751;78;27510;-61
2022/01/20 09:53:56;;;;;;;34.53;15.72;;;;;;;13.58;35.75;100882.69;1814943;78;25688;-61
2022/01/20 09:56:25;;;;;;;28.07;14.00;;;;;;;13.97;35.55;100873.41;1798435;79;25863;-61
2022/01/20 09:58:53;;;;;;;41.37;14.83;;;;;;;14.36;34.87;100854.58;1812615;77;26056;-62
2022/01/20 10:01:43;;;;;;;39.25;16.07;;;;;;;14.69;34.72;100861.59;1813525;79;25691;-62
2022/01/20 10:04:25;;;;;;;39.58;16.48;;;;;;;15.15;33.28;100858.05;1812049;79;28249;-62
2022/01/20 10:07:03;;;;;;;34.20;14.70;;;;;;;15.59;32.29;100855.62;1811621;77;26479;-62
2022/01/20 10:09:36;;;;;;;36.93;14.80;;;;;;;15.80;31.41;100848.88;1774607;80;25977;-62
2022/01/20 10:12:23;;;;;;;55.43;15.20;;;;;;;16.08;31.21;100846.69;1774133;79;26097;-62
2022/01/20 10:14:59;;;;;;;40.90;16.32;;;;;;;16.49;30.81;100837.63;1788794;79;25752;-62
2022/01/20 10:17:45;;;;;;;36.28;14.55;;;;;;;16.86;29.31;100831.22;1778613;79;28374;-62
2022/01/20 10:20:14;;;;;;;25.68;12.53;;;;;;;17.41;28.70;100828.58;1806081;78;25833;-61
2022/01/20 10:22:57;;;;;;;;;;;;;;;17.88;29.08;100824.00;1807617;79;25817;-62
2022/01/20 10:25:43;;;;;;;33.35;13.15;;;;;;;18.13;27.52;100813.75;1802603;79;26193;-62
2022/01/20 10:28:21;;;;;;;34.08;12.60;;;;;;;18.37;27.22;100812.66;1802229;79;26263;-62
2022/01/20 10:30:50;;;;;;;25.32;12.45;;;;;;;18.74;26.81;100805.42;1802085;79;27516;-61
2022/01/20 10:33:17;;;;;;;27.93;12.58;;;;;;;19.24;26.46;100806.14;1802344;79;25684;-62
2022/01/20 10:35:46;;;;;;;35.45;13.13;;;;;;;19.66;25.63;100803.63;1802913;79;25759;-62
2022/01/20 10:38:33;;;;;;;24.75;11.60;;;;;;;20.15;24.59;100797.88;1802705;78;26299;-62
2022/01/20 10:41:04;;;;;;;34.03;13.53;;;;;;;20.30;25.47;100791.80;1803311;78;25722;-63
2022/01/20 10:43:39;;;;;;;39.18;13.65;;;;;;;20.57;24.65;100789.73;1806894;77;27537;-62
2022/01/20 10:46:25;;;;;;;47.43;13.43;;;;;;;20.93;24.53;100776.36;1807905;79;25765;-63
2022/01/20 10:49:02;;;;;;;23.47;8.83;;;;;;;21.35;23.71;100779.00;1807962;78;25757;-62
2022/01/20 10:51:30;;;;;;;20.70;8.73;;;;;;;21.23;20.93;100776.87;1812658;78;26232;-63
2022/01/20 10:54:08;;;;;;;21.87;8.53;;;;;;;20.76;20.37;100779.45;1797423;79;53029;-62
2022/01/20 10:56:53;;;;;;;22.52;8.70;;;;;;;20.54;21.29;100773.22;1802455;79;27564;-62
2022/01/20 10:59:23;;;;;;;14.75;8.48;;;;;;;20.54;21.56;100773.22;1802402;79;25960;-64
2022/01/20 11:02:10;;;;;;;17.85;8.23;;;;;;;20.56;21.46;100772.50;1802388;79;25734;-62
2022/01/20 11:04:39;;;;;;;15.23;7.37;;;;;;;20.71;21.06;100759.20;1802319;79;26058;-62
2022/01/20 11:07:10;;;;;;;15.05;8.75;;;;;;;20.87;21.07;100749.84;1802790;78;26134;-62
2022/01/20 11:09:45;;;;;;;16.52;9.20;;;;;;;21.09;21.19;100751.38;1801665;79;27521;-62
2022/01/20 11:12:16;;;;;;;24.70;9.48;;;;;;;21.06;20.24;100746.34;1785252;79;25888;-62
2022/01/20 11:14:53;;;;;;;16.20;9.28;;;;;;;21.37;20.66;100746.81;1802328;79;25785;-63
2022/01/20 11:17:28;;;;;;;16.73;8.10;;;;;;;21.58;20.11;100743.06;1802760;79;26938;-62
2022/01/20 11:20:15;;;;;;;18.80;9.00;;;;;;;21.49;19.46;100742.92;1802019;78;25862;-62
2022/01/20 11:22:59;;;;;;;15.88;8.05;;;;;;;21.18;19.63;100742.97;1812474;77;27440;-64
2022/01/20 11:25:34;;;;;;;15.68;6.42;;;;;;;21.43;19.73;100737.76;1813636;79;25678;-62
2022/01/20 11:28:34;;;;;;;14.40;7.17;;;;;;;21.23;18.65;100734.47;1811704;79;25842;-62
2022/01/20 11:31:09;;;;;;;12.10;6.35;;;;;;;21.30;18.55;100729.52;1811451;79;26755;-62
2022/01/20 11:33:42;;;;;;;18.42;7.60;;;;;;;21.19;18.27;100730.48;1813166;78;25792;-62
2022/01/20 11:36:29;;;;;;;15.23;6.20;;;;;;;21.02;18.53;100731.91;1813895;79;27996;-62
2022/01/20 11:39:05;;;;;;;10.48;6.28;;;;;;;21.04;19.66;100732.53;1813844;79;25928;-62
2022/01/20 11:41:47;;;;;;;11.80;6.83;;;;;;;21.24;18.48;100723.02;1811940;77;25728;-62
2022/01/20 11:44:20;;;;;;;11.33;6.95;;;;;;;21.04;17.52;100718.85;1772957;80;26705;-62
2022/01/20 11:46:50;;;;;;;19.50;8.40;;;;;;;20.52;19.24;100721.19;1813090;79;25762;-62
2022/01/20 11:49:26;;;;;;;15.08;8.75;;;;;;;19.87;18.92;100720.91;1813770;79;27438;-62
2022/01/20 11:51:58;;;;;;;18.27;6.95;;;;;;;19.24;19.00;100718.37;1810321;78;25721;-61
2022/01/20 11:54:30;;;;;;;17.82;7.33;;;;;;;18.82;19.97;100713.19;1803212;78;25767;-62
2022/01/20 11:57:31;;;;;;;12.65;7.30;;;;;;;18.46;18.70;100699.86;1773156;80;26089;-62
2022/01/20 12:00:05;;;;;;;12.33;6.75;;;;;;;17.76;19.65;100709.30;1775114;80;25508;-62
2022/01/20 12:02:38;;;;;;;13.68;6.85;;;;;;;17.14;19.65;100704.39;1791295;79;27538;-61
2022/01/20 12:05:28;;;;;;;14.93;6.83;;;;;;;16.42;20.70;100709.03;1780417;79;25516;-61
2022/01/20 12:08:14;;;;;;;13.03;7.08;;;;;;;15.86;21.45;100702.27;1762622;80;26519;-61
2022/01/20 12:10:46;;;;;;;14.45;7.35;;;;;;;15.26;21.68;100699.73;1769332;80;26055;-61
2022/01/20 12:13:17;;;;;;;11.78;6.67;;;;;;;14.65;22.11;100698.59;1800393;78;25759;-64
2022/01/20 12:15:52;;;;;;;17.57;7.03;;;;;;;14.31;22.22;100698.11;1802062;79;27531;-63
2022/01/20 12:18:20;;;;;;;12.00;6.10;;;;;;;13.84;22.83;100700.75;1794597;79;25700;-64
2022/01/20 12:20:47;;;;;;;15.23;6.85;;;;;;;13.43;23.15;100697.25;1800056;78;25736;-64
2022/01/20 12:23:15;;;;;;;18.20;6.78;;;;;;;13.08;23.58;100692.20;1760904;80;26084;-63